createdAt,value
2022-08-30T00:00:45.776Z,16.88
2022-08-30T00:03:16.884Z,16.80
2022-08-30T00:05:47.998Z,16.76
2022-08-30T00:08:19.107Z,16.63
2022-08-30T00:10:51.450Z,16.82
2022-08-30T00:13:23.378Z,16.73
2022-08-30T00:15:55.690Z,16.80
2022-08-30T00:18:25.827Z,16.64
2022-08-30T00:20:57.366Z,16.74
2022-08-30T00:23:28.471Z,16.86
2022-08-30T00:25:58.847Z,16.78
2022-08-30T00:28:28.661Z,16.69
2022-08-30T00:31:00.429Z,16.54
2022-08-30T00:33:30.771Z,16.70
2022-08-30T00:36:01.901Z,16.70
2022-08-30T00:38:32.185Z,16.63
2022-08-30T00:41:02.516Z,16.61
2022-08-30T00:43:36.807Z,16.58
2022-08-30T00:46:10.635Z,16.65
2022-08-30T00:48:44.708Z,16.59
2022-08-30T00:51:18.794Z,16.55
2022-08-30T00:53:52.533Z,16.58
2022-08-30T00:56:23.746Z,16.55
2022-08-30T00:58:56.887Z,16.56
2022-08-30T01:01:34.067Z,16.53
2022-08-30T01:04:05.461Z,16.57
2022-08-30T01:06:35.549Z,16.47
2022-08-30T01:09:06.694Z,16.41
2022-08-30T01:11:38.560Z,16.40
2022-08-30T01:14:11.773Z,16.51
2022-08-30T01:16:45.894Z,16.35
2022-08-30T01:19:36.337Z,16.46
2022-08-30T01:22:21.243Z,16.40
2022-08-30T01:24:58.668Z,16.35
2022-08-30T01:27:31.488Z,16.33
2022-08-30T01:30:02.500Z,16.30
2022-08-30T01:32:32.054Z,16.26
2022-08-30T01:35:02.013Z,16.28
2022-08-30T01:37:35.187Z,16.41
2022-08-30T01:40:08.984Z,16.32
2022-08-30T01:42:39.244Z,16.33
2022-08-30T01:45:10.280Z,16.33
2022-08-30T01:47:40.822Z,16.29
2022-08-30T01:50:11.598Z,16.24
2022-08-30T01:52:42.641Z,16.22
2022-08-30T01:55:14.529Z,16.21
2022-08-30T01:57:44.767Z,16.16
2022-08-30T02:00:16.705Z,16.21
2022-08-30T02:02:47.294Z,16.12
2022-08-30T02:05:17.324Z,16.17
2022-08-30T02:07:48.257Z,16.12
2022-08-30T02:10:20.979Z,16.18
2022-08-30T02:12:50.829Z,16.02
2022-08-30T02:15:21.610Z,16.16
2022-08-30T02:17:51.213Z,16.10
2022-08-30T02:20:21.881Z,16.04
2022-08-30T02:22:52.137Z,16.19
2022-08-30T02:25:23.315Z,16.11
2022-08-30T02:27:56.411Z,16.00
2022-08-30T02:30:26.621Z,15.94
2022-08-30T02:32:57.497Z,15.86
2022-08-30T02:35:28.125Z,15.91
2022-08-30T02:37:57.721Z,15.85
2022-08-30T02:40:29.960Z,15.81
2022-08-30T02:43:00.402Z,15.67
2022-08-30T02:45:30.430Z,15.75
2022-08-30T02:48:00.492Z,15.83
2022-08-30T02:50:31.619Z,14.95
2022-08-30T02:53:01.770Z,15.55
2022-08-30T02:55:38.286Z,15.68
2022-08-30T02:58:08.141Z,15.70
2022-08-30T03:00:38.646Z,15.67
2022-08-30T03:03:09.114Z,15.66
2022-08-30T03:05:39.758Z,15.69
2022-08-30T03:08:10.259Z,15.69
2022-08-30T03:10:41.854Z,15.69
2022-08-30T03:13:12.405Z,15.59
2022-08-30T03:15:42.660Z,15.60
2022-08-30T03:18:12.988Z,15.58
2022-08-30T03:20:46.108Z,15.41
2022-08-30T03:23:25.059Z,15.38
2022-08-30T03:25:57.838Z,15.50
2022-08-30T03:28:29.937Z,15.46
2022-08-30T03:30:59.649Z,15.57
2022-08-30T03:33:29.363Z,15.47
2022-08-30T03:35:59.851Z,15.48
2022-08-30T03:38:31.445Z,15.49
2022-08-30T03:41:03.992Z,15.40
2022-08-30T03:43:34.953Z,15.32
2022-08-30T03:46:06.201Z,15.33
2022-08-30T03:48:36.423Z,15.26
2022-08-30T03:51:07.796Z,15.26
2022-08-30T03:53:39.072Z,15.13
2022-08-30T03:56:11.035Z,15.19
2022-08-30T03:58:45.187Z,15.21
2022-08-30T04:01:15.959Z,15.18
2022-08-30T04:03:45.547Z,15.17
2022-08-30T04:06:15.722Z,15.14
2022-08-30T04:08:46.276Z,15.04
2022-08-30T04:11:18.226Z,15.11
2022-08-30T04:13:52.251Z,15.00
2022-08-30T04:16:22.391Z,14.95
2022-08-30T04:18:53.176Z,15.02
2022-08-30T04:21:23.409Z,15.08
2022-08-30T04:23:53.800Z,15.07
2022-08-30T04:26:27.634Z,15.00
2022-08-30T04:29:03.712Z,15.15
2022-08-30T04:31:33.635Z,15.01
2022-08-30T04:34:06.198Z,15.02
2022-08-30T04:36:36.466Z,14.96
2022-08-30T04:39:08.399Z,14.90
2022-08-30T04:41:41.210Z,14.83
2022-08-30T04:44:19.139Z,14.84
2022-08-30T04:46:50.597Z,14.75
2022-08-30T04:49:22.254Z,14.84
2022-08-30T04:51:53.149Z,14.75
2022-08-30T04:54:24.094Z,14.18
2022-08-30T04:56:56.112Z,14.73
2022-08-30T04:59:26.406Z,14.77
2022-08-30T05:01:55.501Z,14.89
2022-08-30T05:04:24.958Z,14.66
2022-08-30T05:06:54.034Z,14.77
2022-08-30T05:09:23.308Z,14.72
2022-08-30T05:11:54.467Z,14.81
2022-08-30T05:14:24.298Z,14.85
2022-08-30T05:16:53.937Z,14.85
2022-08-30T05:19:24.008Z,14.87
2022-08-30T05:21:53.389Z,14.88
2022-08-30T05:24:22.723Z,14.29
2022-08-30T05:26:52.412Z,14.73
2022-08-30T05:29:23.074Z,15.05
2022-08-30T05:31:53.180Z,15.00
2022-08-30T05:34:23.346Z,15.10
2022-08-30T05:36:53.436Z,14.98
2022-08-30T05:39:23.074Z,14.95
2022-08-30T05:41:56.864Z,15.05
2022-08-30T05:44:28.204Z,15.10
2022-08-30T05:46:57.555Z,15.35
2022-08-30T05:49:26.882Z,15.29
2022-08-30T05:51:57.165Z,15.33
2022-08-30T05:54:26.453Z,14.84
2022-08-30T05:56:55.958Z,15.50
2022-08-30T05:59:26.451Z,15.60
2022-08-30T06:01:59.379Z,15.64
2022-08-30T06:04:29.073Z,15.78
2022-08-30T06:06:58.322Z,15.99
2022-08-30T06:09:27.794Z,16.18
2022-08-30T06:11:57.937Z,16.31
2022-08-30T06:14:29.367Z,16.29
2022-08-30T06:16:58.607Z,16.64
2022-08-30T06:19:27.860Z,16.53
2022-08-30T06:21:58.004Z,16.88
2022-08-30T06:24:41.071Z,16.90
2022-08-30T06:27:16.950Z,17.05
2022-08-30T06:29:51.747Z,17.20
2022-08-30T06:32:21.462Z,17.37
2022-08-30T06:34:50.911Z,17.54
2022-08-30T06:37:29.178Z,17.72
2022-08-30T06:40:00.015Z,17.90
2022-08-30T06:42:33.544Z,18.06
2022-08-30T06:45:10.691Z,18.08
2022-08-30T06:47:44.893Z,18.19
2022-08-30T06:50:18.289Z,18.21
2022-08-30T06:52:48.055Z,18.36
2022-08-30T06:55:18.160Z,18.45
2022-08-30T06:57:48.201Z,18.58
2022-08-30T07:00:20.134Z,18.89
2022-08-30T07:02:49.692Z,19.03
2022-08-30T07:05:22.197Z,19.32
2022-08-30T07:07:53.510Z,19.41
2022-08-30T07:10:23.362Z,18.74
2022-08-30T07:12:52.649Z,19.32
2022-08-30T07:15:23.260Z,19.57
2022-08-30T07:18:10.389Z,19.80
2022-08-30T07:20:40.872Z,19.92
2022-08-30T07:23:11.188Z,19.55
2022-08-30T07:25:42.302Z,19.80
2022-08-30T07:28:12.711Z,19.97
2022-08-30T07:30:44.685Z,20.12
2022-08-30T07:33:13.864Z,20.08
2022-08-30T07:35:43.978Z,19.96
2022-08-30T07:38:15.205Z,20.26
2022-08-30T07:40:45.162Z,20.38
2022-08-30T07:43:14.437Z,20.71
2022-08-30T07:45:44.923Z,20.32
2022-08-30T07:48:14.697Z,20.63
2022-08-30T07:50:45.968Z,20.58
2022-08-30T07:53:15.593Z,20.72
2022-08-30T07:55:44.807Z,20.74
2022-08-30T07:58:15.077Z,20.80
2022-08-30T08:00:46.194Z,20.59
2022-08-30T08:03:15.980Z,21.20
2022-08-30T08:05:48.563Z,21.09
2022-08-30T08:08:18.230Z,21.30
2022-08-30T08:10:48.246Z,21.63
2022-08-30T08:13:18.030Z,21.46
2022-08-30T08:15:48.987Z,21.72
2022-08-30T08:18:18.998Z,21.81
2022-08-30T08:20:48.425Z,21.94
2022-08-30T08:23:19.479Z,21.74
2022-08-30T08:25:48.908Z,21.92
2022-08-30T08:28:18.276Z,22.11
2022-08-30T08:30:50.549Z,22.33
2022-08-30T08:33:20.303Z,22.37
2022-08-30T08:35:50.510Z,22.48
2022-08-30T08:38:20.425Z,22.60
2022-08-30T08:41:00.951Z,22.68
2022-08-30T08:43:35.053Z,22.35
2022-08-30T08:46:11.654Z,22.17
2022-08-30T08:48:59.030Z,22.04
2022-08-30T08:51:51.925Z,22.26
2022-08-30T08:54:29.115Z,22.24
2022-08-30T08:56:59.286Z,22.50
2022-08-30T08:59:28.933Z,22.29
2022-08-30T09:02:03.506Z,22.47
2022-08-30T09:04:37.328Z,22.37
2022-08-30T09:07:17.478Z,22.56
2022-08-30T09:09:50.739Z,22.74
2022-08-30T09:12:22.388Z,22.70
2022-08-30T09:14:57.298Z,22.85
2022-08-30T09:17:30.259Z,23.09
2022-08-30T09:20:01.210Z,23.26
2022-08-30T09:22:35.468Z,23.41
2022-08-30T09:25:11.319Z,23.22
2022-08-30T09:27:43.551Z,23.39
2022-08-30T09:30:19.947Z,23.43
2022-08-30T09:32:56.034Z,23.50
2022-08-30T09:35:28.590Z,23.42
2022-08-30T09:38:06.081Z,23.83
2022-08-30T09:40:40.792Z,23.87
2022-08-30T09:43:20.864Z,23.89
2022-08-30T09:46:07.008Z,24.08
2022-08-30T09:48:40.872Z,24.11
2022-08-30T09:51:31.669Z,24.15
2022-08-30T09:54:20.245Z,24.03
2022-08-30T09:57:11.728Z,24.31
2022-08-30T09:59:50.288Z,24.25
2022-08-30T10:02:42.689Z,24.72
2022-08-30T10:05:21.037Z,24.77
2022-08-30T10:08:01.305Z,24.88
2022-08-30T10:10:42.816Z,24.79
2022-08-30T10:13:44.490Z,24.96
2022-08-30T10:16:29.171Z,25.07
2022-08-30T10:19:07.888Z,25.14
2022-08-30T10:21:45.546Z,24.91
2022-08-30T10:24:21.193Z,25.09
2022-08-30T10:26:55.766Z,25.04
2022-08-30T10:29:31.308Z,25.17
2022-08-30T10:32:05.150Z,25.13
2022-08-30T10:34:40.232Z,25.31
2022-08-30T10:37:16.710Z,25.33
2022-08-30T10:39:50.381Z,25.40
2022-08-30T10:42:23.192Z,24.83
2022-08-30T10:45:01.544Z,25.08
2022-08-30T10:47:37.557Z,25.19
2022-08-30T10:50:15.276Z,25.32
2022-08-30T10:52:56.172Z,25.50
2022-08-30T10:55:30.417Z,25.49
2022-08-30T10:58:01.944Z,25.15
2022-08-30T11:00:39.370Z,25.84
2022-08-30T11:03:46.546Z,24.89
2022-08-30T11:06:26.542Z,25.92
2022-08-30T11:09:38.925Z,25.22
2022-08-30T11:12:31.905Z,25.62
2022-08-30T11:15:12.786Z,25.55
2022-08-30T11:17:48.787Z,25.77
2022-08-30T11:20:34.546Z,25.74
2022-08-30T11:23:23.519Z,25.90
2022-08-30T11:25:58.469Z,25.73
2022-08-30T11:29:03.506Z,26.00
2022-08-30T11:31:53.724Z,26.18
2022-08-30T11:34:57.745Z,25.97
2022-08-30T11:37:41.229Z,26.10
2022-08-30T11:40:33.664Z,26.05
2022-08-30T11:43:43.423Z,26.20
2022-08-30T11:46:18.154Z,26.33
2022-08-30T11:48:55.124Z,25.76
2022-08-30T11:52:08.527Z,26.36
2022-08-30T11:55:00.293Z,26.31
2022-08-30T11:57:38.375Z,26.35
2022-08-30T12:00:30.120Z,26.33
2022-08-30T12:03:03.938Z,26.52
2022-08-30T12:05:53.116Z,26.44
2022-08-30T12:08:59.990Z,26.39
2022-08-30T12:12:04.551Z,26.60
2022-08-30T12:14:47.826Z,26.58
2022-08-30T12:17:52.172Z,26.55
2022-08-30T12:20:29.808Z,26.54
2022-08-30T12:23:19.183Z,26.32
2022-08-30T12:25:49.359Z,26.23
2022-08-30T12:28:26.344Z,26.20
2022-08-30T12:30:56.263Z,26.27
2022-08-30T12:33:39.503Z,26.36
2022-08-30T12:36:15.869Z,26.23
2022-08-30T12:38:46.849Z,25.81
2022-08-30T12:41:22.917Z,26.09
2022-08-30T12:43:53.999Z,26.20
2022-08-30T12:46:23.998Z,25.88
2022-08-30T12:48:55.509Z,25.78
2022-08-30T12:51:37.975Z,25.49
2022-08-30T12:54:10.793Z,25.70
2022-08-30T12:56:56.810Z,25.78
2022-08-30T12:59:51.783Z,25.25
2022-08-30T13:02:27.898Z,25.57
2022-08-30T13:04:59.729Z,25.73
2022-08-30T13:07:34.260Z,25.60
2022-08-30T13:10:10.383Z,25.61
2022-08-30T13:13:00.185Z,25.31
2022-08-30T13:15:33.212Z,24.82
2022-08-30T13:18:26.645Z,25.41
2022-08-30T13:21:20.730Z,25.63
2022-08-30T13:23:50.762Z,23.96
2022-08-30T13:26:23.307Z,25.21
2022-08-30T13:28:58.751Z,25.31
2022-08-30T13:31:30.687Z,24.91
2022-08-30T13:34:02.652Z,25.02
2022-08-30T13:36:37.868Z,24.77
2022-08-30T13:39:08.117Z,24.04
2022-08-30T13:41:38.154Z,24.83
2022-08-30T13:44:11.956Z,24.92
2022-08-30T13:46:52.258Z,25.16
2022-08-30T13:52:22.679Z,25.03
2022-08-30T13:54:54.483Z,24.85
2022-08-30T14:00:20.150Z,24.44
2022-08-30T14:02:54.484Z,24.27
2022-08-30T14:11:11.992Z,24.67
2022-08-30T14:16:34.807Z,24.80
2022-08-30T14:19:05.814Z,24.73
2022-08-30T14:21:37.562Z,24.60
2022-08-30T14:24:09.692Z,24.58
2022-08-30T14:26:43.939Z,24.61
2022-08-30T14:29:17.796Z,24.46
2022-08-30T14:31:49.212Z,24.38
2022-08-30T14:34:20.434Z,24.52
2022-08-30T14:36:49.996Z,24.53
2022-08-30T14:39:22.696Z,24.47
2022-08-30T14:41:55.277Z,24.25
2022-08-30T14:44:26.339Z,23.77
2022-08-30T14:46:56.951Z,23.41
2022-08-30T14:49:27.516Z,23.36
2022-08-30T14:51:57.845Z,23.44
2022-08-30T14:54:32.570Z,23.46
2022-08-30T14:57:03.391Z,23.73
2022-08-30T14:59:34.165Z,23.47
2022-08-30T15:02:04.672Z,23.59
2022-08-30T15:04:34.440Z,23.50
2022-08-30T15:07:05.607Z,23.62
2022-08-30T15:09:37.217Z,23.71
2022-08-30T15:12:10.263Z,23.41
2022-08-30T15:14:40.796Z,23.21
2022-08-30T15:17:11.711Z,23.37
2022-08-30T15:19:43.678Z,23.18
2022-08-30T15:22:13.519Z,23.17
2022-08-30T15:24:49.070Z,23.15
2022-08-30T15:27:21.939Z,23.13
2022-08-30T15:29:51.452Z,22.62
2022-08-30T15:32:21.875Z,22.95
2022-08-30T15:34:55.976Z,22.90
2022-08-30T15:37:26.665Z,22.77
2022-08-30T15:39:59.073Z,22.90
2022-08-30T15:42:28.835Z,22.73
2022-08-30T15:44:58.827Z,22.94
2022-08-30T15:47:28.115Z,23.19
2022-08-30T15:49:58.432Z,23.22
2022-08-30T15:52:29.686Z,23.27
2022-08-30T15:55:00.305Z,23.16
2022-08-30T15:57:29.629Z,22.78
2022-08-30T15:59:58.840Z,22.16
2022-08-30T16:02:28.212Z,22.30
2022-08-30T16:04:57.472Z,21.62
2022-08-30T16:07:26.617Z,22.30
2022-08-30T16:09:56.042Z,22.24
2022-08-30T16:12:26.593Z,22.30
2022-08-30T16:14:57.933Z,22.07
2022-08-30T16:17:27.106Z,22.22
2022-08-30T16:19:58.779Z,22.19
2022-08-30T16:22:28.171Z,22.22
2022-08-30T16:24:57.242Z,22.17
2022-08-30T16:27:28.128Z,22.02
2022-08-30T16:29:57.278Z,21.91
2022-08-30T16:32:27.198Z,21.85
2022-08-30T16:34:56.937Z,21.87
2022-08-30T16:37:26.557Z,21.87
2022-08-30T16:39:57.873Z,22.01
2022-08-30T16:42:28.960Z,22.05
2022-08-30T16:45:02.084Z,21.65
2022-08-30T16:47:35.538Z,21.74
2022-08-30T16:50:05.759Z,21.92
2022-08-30T16:52:39.475Z,21.77
2022-08-30T16:55:13.188Z,21.75
2022-08-30T16:57:45.741Z,21.75
2022-08-30T17:00:17.964Z,21.61
2022-08-30T17:02:55.091Z,21.41
2022-08-30T17:05:25.603Z,21.44
2022-08-30T17:07:55.917Z,21.16
2022-08-30T17:10:31.554Z,21.28
2022-08-30T17:13:05.428Z,21.35
2022-08-30T17:15:34.868Z,21.29
2022-08-30T17:18:04.804Z,21.15
2022-08-30T17:20:34.771Z,21.20
2022-08-30T17:23:04.475Z,21.18
2022-08-30T17:25:34.148Z,21.26
2022-08-30T17:28:05.789Z,21.07
2022-08-30T17:30:34.927Z,20.99
2022-08-30T17:33:04.890Z,20.97
2022-08-30T17:35:36.571Z,21.04
2022-08-30T17:38:05.344Z,21.01
2022-08-30T17:40:34.808Z,20.92
2022-08-30T17:43:05.286Z,20.87
2022-08-30T17:45:35.086Z,20.91
2022-08-30T17:48:32.950Z,20.74
2022-08-30T17:51:02.075Z,20.78
2022-08-30T17:53:33.911Z,20.71
2022-08-30T17:56:04.227Z,20.64
2022-08-30T17:58:34.875Z,20.62
2022-08-30T18:01:11.618Z,20.58
2022-08-30T18:03:42.084Z,20.32
2022-08-30T18:06:14.976Z,20.35
2022-08-30T18:08:45.937Z,20.27
2022-08-30T18:11:14.911Z,20.36
2022-08-30T18:13:45.877Z,20.21
2022-08-30T18:16:21.527Z,20.12
2022-08-30T18:18:57.307Z,20.13
2022-08-30T18:21:28.523Z,19.88
2022-08-30T18:23:58.815Z,19.81
2022-08-30T18:26:28.730Z,19.78
2022-08-30T18:29:00.953Z,19.82
2022-08-30T18:31:32.709Z,19.83
2022-08-30T18:34:04.174Z,19.76
2022-08-30T18:36:35.168Z,19.76
2022-08-30T18:39:04.232Z,19.77
2022-08-30T18:41:33.260Z,19.61
2022-08-30T18:44:26.009Z,19.53
2022-08-30T18:46:56.155Z,19.46
2022-08-30T18:49:29.247Z,19.37
2022-08-30T18:52:02.832Z,19.38
2022-08-30T18:54:32.105Z,19.44
2022-08-30T18:57:00.996Z,19.40
2022-08-30T18:59:36.712Z,19.44
2022-08-30T19:02:10.516Z,19.26
2022-08-30T19:04:42.856Z,19.12
2022-08-30T19:07:15.937Z,19.04
2022-08-30T19:09:48.178Z,18.97
2022-08-30T19:12:17.222Z,18.83
2022-08-30T19:14:48.802Z,18.83
2022-08-30T19:17:18.645Z,18.85
2022-08-30T19:19:52.278Z,18.83
2022-08-30T19:22:24.026Z,18.96
2022-08-30T19:24:56.965Z,18.83
2022-08-30T19:27:37.652Z,18.75
2022-08-30T19:30:12.985Z,18.66
2022-08-30T19:32:44.382Z,18.57
2022-08-30T19:35:17.798Z,18.46
2022-08-30T19:37:51.120Z,18.27
2022-08-30T19:40:21.765Z,18.60
2022-08-30T19:42:53.403Z,18.27
2022-08-30T19:45:26.785Z,18.45
2022-08-30T19:47:57.869Z,18.50
2022-08-30T19:50:27.579Z,18.40
2022-08-30T19:52:56.813Z,18.38
2022-08-30T19:55:28.487Z,18.36
2022-08-30T19:57:59.705Z,18.46
2022-08-30T20:00:31.135Z,18.44
2022-08-30T20:03:04.435Z,18.36
2022-08-30T20:05:37.499Z,18.16
2022-08-30T20:08:06.754Z,18.26
2022-08-30T20:10:37.129Z,18.24
2022-08-30T20:13:07.045Z,18.20
2022-08-30T20:15:39.588Z,18.16
2022-08-30T20:21:02.476Z,18.21
2022-08-30T20:23:35.527Z,18.09
2022-08-30T20:26:04.821Z,17.95
2022-08-30T20:28:33.606Z,18.08
2022-08-30T20:31:08.433Z,18.02
2022-08-30T20:33:39.040Z,18.11
2022-08-30T20:36:11.321Z,18.12
2022-08-30T20:38:41.459Z,18.09
2022-08-30T20:41:11.714Z,18.18
2022-08-30T20:43:41.531Z,18.08
2022-08-30T20:46:17.890Z,18.23
2022-08-30T20:48:47.881Z,18.19
2022-08-30T20:51:21.168Z,18.06
2022-08-30T20:53:50.926Z,18.25
2022-08-30T20:56:22.648Z,18.20
2022-08-30T20:58:52.241Z,18.14
2022-08-30T21:01:23.502Z,18.08
2022-08-30T21:03:52.620Z,18.25
2022-08-30T21:06:22.098Z,18.11
2022-08-30T21:08:50.984Z,18.12
2022-08-30T21:11:21.237Z,18.02
2022-08-30T21:13:50.302Z,17.82
2022-08-30T21:16:22.192Z,17.85
2022-08-30T21:18:52.976Z,17.90
2022-08-30T21:21:25.723Z,18.17
2022-08-30T21:23:59.433Z,18.19
2022-08-30T21:26:31.759Z,17.98
2022-08-30T21:29:03.777Z,18.08
2022-08-30T21:31:33.356Z,18.07
2022-08-30T21:34:03.785Z,18.01
2022-08-30T21:36:46.896Z,18.05
2022-08-30T21:39:21.080Z,17.93
2022-08-30T21:41:54.824Z,18.01
2022-08-30T21:44:25.910Z,17.79
2022-08-30T21:46:56.148Z,17.90
2022-08-30T21:49:27.320Z,17.91
2022-08-30T21:52:00.208Z,17.88
2022-08-30T21:54:31.557Z,17.95
2022-08-30T21:57:04.988Z,17.94
2022-08-30T21:59:34.501Z,17.92
2022-08-30T22:02:03.577Z,17.83
2022-08-30T22:04:34.236Z,17.83
2022-08-30T22:07:03.431Z,17.76
2022-08-30T22:09:32.261Z,17.83
2022-08-30T22:12:01.866Z,17.78
2022-08-30T22:14:33.283Z,17.74
2022-08-30T22:17:02.674Z,17.69
2022-08-30T22:19:33.808Z,17.66
2022-08-30T22:22:06.977Z,17.63
2022-08-30T22:24:36.230Z,17.12
2022-08-30T22:27:06.303Z,17.03
2022-08-30T22:29:35.952Z,17.46
2022-08-30T22:32:05.459Z,17.47
2022-08-30T22:34:34.594Z,17.46
2022-08-30T22:37:03.606Z,17.40
2022-08-30T22:39:33.877Z,17.46
2022-08-30T22:42:05.400Z,17.34
2022-08-30T22:44:34.657Z,17.12
2022-08-30T22:47:03.838Z,17.23
2022-08-30T22:49:33.106Z,17.18
2022-08-30T22:52:02.079Z,17.16
2022-08-30T22:54:37.168Z,17.10
2022-08-30T22:57:06.940Z,17.02
2022-08-30T22:59:36.986Z,17.03
2022-08-30T23:02:06.518Z,16.99
2022-08-30T23:04:38.327Z,16.87
2022-08-30T23:07:07.340Z,16.94
2022-08-30T23:09:38.164Z,16.96
2022-08-30T23:12:08.431Z,16.94
2022-08-30T23:14:37.524Z,16.75
2022-08-30T23:17:07.351Z,16.89
2022-08-30T23:19:36.248Z,16.85
2022-08-30T23:22:05.166Z,16.79
2022-08-30T23:24:51.281Z,16.78
2022-08-30T23:27:39.231Z,16.72
2022-08-30T23:30:27.645Z,16.70
2022-08-30T23:33:15.916Z,16.68
2022-08-30T23:36:02.776Z,16.69
2022-08-30T23:38:50.248Z,16.67
2022-08-30T23:41:37.306Z,16.50
2022-08-30T23:44:26.232Z,16.57
2022-08-30T23:47:13.163Z,16.42
2022-08-30T23:49:59.487Z,16.44
2022-08-30T23:52:46.651Z,16.44
2022-08-30T23:55:32.890Z,16.26
2022-08-30T23:58:19.914Z,16.22
